Vermillion, South Dakota
Current Conditions -  °F | °C
As of 8:15 PM on Friday 19 Dec 2014 (Local Time) from KYKN Reporting Station
Overcast Overcast  
Wind Chill: -4°   Ceiling: 1200
Heat Index:   Visibility: 7mi
Dew Point: -2°   Wind: 8mph
Humidity: 87%   Direction: 150°SSE
Pressure: 30.07"   Gusts: NA
Location:  42.79°N, 96.93°W
Report Text: KYKN 200215Z AUTO 15007KT 7SM OVC012 00/M02 A3007 RMK AO1
Loading
Personal Weather Stations






























Interactive Weather Map New forecast layout! Learn more

10-Day Weather Forecast

Advertisements
Track Severe Weather on mobile